Strona główna
METAR-TAF:

METAR-TAF

Lotnisko :

Lotnisko Ronaldsway

Wyspa Man,

Szerokość geograficzna: 54-05N, Długość geograficzna: 004-38W, wysokość: 17 m

Aktualna obserwacja pogody

Raport powstał 39 minut temu, godzina 11:20 UTC
Wiatr 9 kt od południowy zachód
Temperatura 9°C
Wilgotność 81%
Ciśnienie 1036 hPa
Widzialność 10 km lub więcej
Mało chmury na wysokości 1800 ft

METAR: EGNS 261120Z 22009KT 9999 FEW018 09/06 Q1036 NOSIG

czas: 11:59 (11:59 UTC)

Prognoza

Raport powstał 59 minut temu, godzina 11:00 UTC
Prognoza ważna od 26 godzina 12 UTC do 26 godzina 21 UTC
Wiatr 8 kt od zachodnio-południowy zachód
Widzialność 10 km lub więcej
Mało chmury na wysokości 1100 ft

TAF: EGNS 261100Z 2612/2621 24008KT 9999 FEW011

Obserwacja i prognoza pogody dla ponad 4000 lotnisk (raport METAR i TAF).

Dostępne stacje oznaczono żółtymi i czerwonymi punktami na mapie.

Najedź kursorem aby zobaczyć nazwę stacji.

Kliknij aby zobaczyć obserwacje i prognozy pogody.

Aby zmienić mapę: kliknij na zielony przycisk z czarnym krzyżykiem, aby powiększyć; na zielony przycisk z myślnikiem, aby pomniejszyć; na zielone strzałki, aby przejść do map sąsiednich.


METAR-TAF: